Hafr Al Batin Airport
OEPA : now visible

Airfield :











YOU CAN JOIN US ON...

 
LOGIN :

Register | Disclaimer

   EN    FR    IT 

 









Legend :    VFR   Marginal VFR   IFR   Intensive IFR   Very Intensive IFR
Visi :
Ceiling :
>= 8 km
>= 3000ft
5 to 8 km
1000 to 3000 ft
1500m to 5 km
500 to 1000 ft
800 to 1500m
200 to 500 ft
< 800m
< 200 ft
Symbols :   Thunderstorms  Fog  Heavy snow  Heavy precipitations  Wind > 20 kt






- Airport Elevation : 1174 ft
- IATA code : AQI


OEPA - Hafr Al Batin

CURRENT METAR :
  • 051000Z 09002KT CAVOK 31/13 Q1019 NOSIG

EXPIRED METARs :
  • 050900Z 09006KT CAVOK 29/13 Q1020 NOSIG
  • 050800Z 09006KT CAVOK 27/13 Q1021 NOSIG

TAF TAF OEPA
Valid from the 04 at 12:00 until the 05 at 18:00 UTC


041100Z 0412/0518 07012KT CAVOK
BECMG 0418/0420 VRB03KT
BECMG 0506/0508 07013KT



MET'MAP, your aeronautical weather chart ! - Copyright ORBIFLY December 2007 - Disclaimer

ORBIFLY MET'MAP TEAM :

Programming & Development : Alexandra Zaïnal
Concept & original design : Baudouin d'Aumeries
Assistance for programming : Marc-Olivier Méhu
Technical & hardware support : Manuel Goepfert

Contact : metmap@orbifly.com




SOURCES & CREDITS :

   NOAA       Earth
Advisory